Terminal Aerodrome Forecast
Issued by NWS

Home | Current Version | Previous Version | Text Only | Print | Product List | Glossary Off
Versions: 1 2 3 4 5 6 7 8 9 10 11 12 13 14 15 16 17

000
FTUS43 KMPX 252320
TAFAXN
TAF
KAXN 252320Z 2600/2624 01015G23KT P6SM VCSH OVC017
     FM260300 02015G24KT 6SM -RA BR OVC008
     FM261300 01015G23KT 3SM -RASN BR OVC008
     FM261700 36014G24KT P6SM VCSH OVC008=

USA.gov is the U.S. government's official web portal to all federal, state and local government web resources and services.